createdAt,value
2023-04-20T00:02:03.356Z,9.12
2023-04-20T00:04:32.207Z,9.12
2023-04-20T00:07:01.283Z,9.13
2023-04-20T00:09:30.085Z,9.13
2023-04-20T00:12:00.064Z,9.15
2023-04-20T00:14:28.934Z,9.15
2023-04-20T00:16:57.914Z,9.16
2023-04-20T00:19:29.007Z,9.15
2023-04-20T00:21:57.741Z,9.15
2023-04-20T00:24:26.726Z,9.15
2023-04-20T00:26:55.798Z,9.14
2023-04-20T00:29:25.606Z,9.13
2023-04-20T00:31:54.447Z,9.11
2023-04-20T00:34:23.127Z,9.10
2023-04-20T00:36:52.362Z,9.08
2023-04-20T00:39:21.260Z,9.07
2023-04-20T00:41:49.991Z,9.04
2023-04-20T00:44:18.784Z,9.01
2023-04-20T00:46:48.814Z,8.98
2023-04-20T00:49:19.387Z,8.94
2023-04-20T00:51:50.024Z,8.91
2023-04-20T00:54:18.856Z,8.89
2023-04-20T00:56:47.692Z,8.86
2023-04-20T00:59:16.960Z,8.84
2023-04-20T01:01:48.231Z,8.83
2023-04-20T01:04:17.300Z,8.81
2023-04-20T01:06:46.384Z,8.80
2023-04-20T01:09:16.784Z,8.79
2023-04-20T01:11:46.712Z,8.77
2023-04-20T01:14:18.974Z,8.77
2023-04-20T01:16:47.708Z,8.77
2023-04-20T01:19:16.775Z,8.77
2023-04-20T01:21:46.082Z,8.78
2023-04-20T01:24:14.969Z,8.81
2023-04-20T01:26:43.644Z,8.82
2023-04-20T01:29:12.370Z,8.84
2023-04-20T01:31:41.037Z,8.85
2023-04-20T01:34:09.960Z,8.87
2023-04-20T01:36:38.695Z,8.88
2023-04-20T01:39:09.785Z,8.90
2023-04-20T01:41:40.301Z,8.90
2023-04-20T01:44:09.253Z,8.91
2023-04-20T01:46:40.203Z,8.91
2023-04-20T01:49:09.337Z,8.91
2023-04-20T01:51:38.393Z,8.91
2023-04-20T01:54:07.324Z,8.90
2023-04-20T01:56:36.365Z,8.89
2023-04-20T01:59:05.044Z,8.89
2023-04-20T02:01:35.588Z,8.87
2023-04-20T02:04:04.293Z,8.87
2023-04-20T02:06:33.548Z,8.85
2023-04-20T02:09:02.262Z,8.84
2023-04-20T02:11:30.930Z,8.82
2023-04-20T02:13:59.715Z,8.81
2023-04-20T02:16:31.986Z,8.81
2023-04-20T02:19:01.501Z,8.82
2023-04-20T02:21:30.169Z,8.82
2023-04-20T02:23:59.170Z,8.84
2023-04-20T02:26:29.312Z,8.85
2023-04-20T02:28:57.823Z,8.87
2023-04-20T02:31:28.334Z,8.87
2023-04-20T02:33:57.076Z,8.88
2023-04-20T02:36:30.446Z,8.88
2023-04-20T02:38:59.259Z,8.88
2023-04-20T02:41:28.676Z,8.88
2023-04-20T02:43:57.645Z,8.88
2023-04-20T02:46:28.995Z,8.87
2023-04-20T02:48:57.987Z,8.87
2023-04-20T02:51:27.467Z,8.87
2023-04-20T02:53:56.191Z,8.87
2023-04-20T02:56:29.703Z,8.87
2023-04-20T02:59:02.656Z,8.87
2023-04-20T03:01:54.307Z,8.89
2023-04-20T03:04:24.466Z,8.89
2023-04-20T03:07:19.232Z,8.89
2023-04-20T03:09:48.960Z,8.89
2023-04-20T03:12:24.709Z,8.89
2023-04-20T03:15:02.416Z,8.90
2023-04-20T03:18:04.295Z,8.90
2023-04-20T03:20:33.992Z,8.90
2023-04-20T03:23:02.761Z,8.91
2023-04-20T03:25:32.541Z,8.91
2023-04-20T03:28:04.543Z,8.91
2023-04-20T03:30:33.795Z,8.91
2023-04-20T03:33:09.082Z,8.91
2023-04-20T03:35:39.656Z,8.92
2023-04-20T03:38:08.456Z,8.92
2023-04-20T03:40:38.583Z,8.92
2023-04-20T03:43:07.864Z,8.93
2023-04-20T03:45:36.888Z,8.94
2023-04-20T03:48:05.745Z,8.96
2023-04-20T03:50:35.083Z,8.98
2023-04-20T03:53:03.643Z,9.00
2023-04-20T03:55:33.058Z,9.02
2023-04-20T03:58:06.061Z,9.03
2023-04-20T04:00:43.893Z,9.04
2023-04-20T04:03:13.342Z,9.04
2023-04-20T04:05:42.784Z,9.05
2023-04-20T04:08:12.359Z,9.04
2023-04-20T04:10:41.075Z,9.03
2023-04-20T04:13:12.112Z,9.03
2023-04-20T04:15:40.957Z,9.02
2023-04-20T04:18:12.798Z,9.02
2023-04-20T04:20:42.023Z,9.00
2023-04-20T04:23:12.283Z,9.00
2023-04-20T04:25:54.477Z,8.98
2023-04-20T04:28:25.287Z,8.96
2023-04-20T04:31:14.557Z,8.93
2023-04-20T04:33:43.363Z,8.89
2023-04-20T04:36:12.758Z,8.86
2023-04-20T04:38:45.200Z,8.82
2023-04-20T04:41:14.322Z,8.77
2023-04-20T04:43:43.488Z,8.75
2023-04-20T04:46:22.003Z,8.74
2023-04-20T04:48:52.258Z,8.75
2023-04-20T04:51:21.179Z,8.76
2023-04-20T04:53:51.359Z,8.76
2023-04-20T04:56:21.078Z,8.78
2023-04-20T04:58:49.859Z,8.80
2023-04-20T05:01:18.718Z,8.81
2023-04-20T05:03:47.687Z,8.83
2023-04-20T05:06:16.741Z,8.84
2023-04-20T05:08:46.463Z,8.85
2023-04-20T05:11:15.691Z,8.86
2023-04-20T05:13:44.349Z,8.85
2023-04-20T05:16:14.085Z,8.83
2023-04-20T05:18:42.880Z,8.80
2023-04-20T05:21:11.627Z,8.77
2023-04-20T05:23:40.439Z,8.73
2023-04-20T05:26:09.107Z,8.69
2023-04-20T05:28:38.091Z,8.63
2023-04-20T05:31:08.594Z,8.58
2023-04-20T05:33:37.270Z,8.53
2023-04-20T05:36:09.053Z,8.50
2023-04-20T05:38:38.349Z,8.46
2023-04-20T05:41:07.764Z,8.44
2023-04-20T05:43:36.641Z,8.43
2023-04-20T05:46:05.722Z,8.43
2023-04-20T05:48:34.770Z,8.44
2023-04-20T05:51:03.515Z,8.44
2023-04-20T05:53:32.271Z,8.45
2023-04-20T05:56:01.094Z,8.48
2023-04-20T05:58:30.633Z,8.51
2023-04-20T06:00:59.308Z,8.53
2023-04-20T06:03:28.261Z,8.55
2023-04-20T06:05:57.154Z,8.57
2023-04-20T06:08:26.420Z,8.60
2023-04-20T06:10:56.413Z,8.63
2023-04-20T06:13:25.505Z,8.65
2023-04-20T06:15:54.503Z,8.68
2023-04-20T06:18:23.763Z,8.71
2023-04-20T06:20:52.352Z,8.77
2023-04-20T06:23:21.959Z,8.84
2023-04-20T06:25:50.652Z,8.93
2023-04-20T06:28:19.819Z,9.05
2023-04-20T06:30:48.578Z,9.17
2023-04-20T06:33:17.869Z,9.31
2023-04-20T06:35:46.928Z,9.41
2023-04-20T06:38:15.730Z,9.51
2023-04-20T06:40:44.326Z,9.59
2023-04-20T06:43:13.314Z,9.66
2023-04-20T06:45:42.215Z,9.70
2023-04-20T06:48:24.023Z,9.72
2023-04-20T06:51:00.159Z,9.75
2023-04-20T06:53:30.541Z,9.77
2023-04-20T06:55:59.348Z,9.82
2023-04-20T06:58:28.300Z,9.89
2023-04-20T07:00:57.110Z,9.98
2023-04-20T07:03:25.953Z,10.05
2023-04-20T07:05:55.831Z,10.10
2023-04-20T07:08:24.658Z,10.12
2023-04-20T07:10:53.429Z,10.12
2023-04-20T07:13:22.412Z,10.12
2023-04-20T07:15:51.657Z,10.12
2023-04-20T07:18:20.588Z,10.09
2023-04-20T07:20:49.413Z,10.07
2023-04-20T07:23:18.100Z,10.06
2023-04-20T07:25:46.734Z,10.06
2023-04-20T07:28:15.447Z,10.05
2023-04-20T07:30:44.325Z,10.05
2023-04-20T07:33:12.940Z,10.07
2023-04-20T07:35:41.739Z,10.09
2023-04-20T07:38:11.135Z,10.11
2023-04-20T07:40:39.789Z,10.11
2023-04-20T07:43:08.563Z,10.06
2023-04-20T07:45:41.817Z,9.99
2023-04-20T07:48:12.847Z,9.89
2023-04-20T07:50:41.635Z,9.77
2023-04-20T07:53:10.407Z,9.66
2023-04-20T07:55:39.113Z,9.51
2023-04-20T07:58:07.798Z,9.38
2023-04-20T08:00:36.474Z,9.25
2023-04-20T08:03:05.605Z,9.15
2023-04-20T08:05:34.465Z,9.08
2023-04-20T08:08:03.224Z,9.02
2023-04-20T08:10:32.479Z,8.94
2023-04-20T08:13:01.558Z,8.87
2023-04-20T08:15:30.329Z,8.80
2023-04-20T08:17:59.404Z,8.73
2023-04-20T08:20:28.283Z,8.67
2023-04-20T08:22:57.056Z,8.64
2023-04-20T08:25:27.263Z,8.61
2023-04-20T08:27:56.677Z,8.59
2023-04-20T08:30:27.002Z,8.57
2023-04-20T08:32:56.466Z,8.55
2023-04-20T08:35:25.470Z,8.56
2023-04-20T08:37:54.619Z,8.56
2023-04-20T08:40:24.836Z,8.57
2023-04-20T08:42:53.511Z,8.57
2023-04-20T08:45:22.222Z,8.59
2023-04-20T08:47:51.071Z,8.61
2023-04-20T08:50:20.123Z,8.62
2023-04-20T08:52:48.967Z,8.62
2023-04-20T08:55:20.932Z,8.58
2023-04-20T08:57:52.294Z,8.54
2023-04-20T09:00:21.946Z,8.51
2023-04-20T09:02:52.104Z,8.49
2023-04-20T09:05:28.406Z,8.52
2023-04-20T09:08:01.716Z,8.55
2023-04-20T09:10:39.477Z,8.58
2023-04-20T09:13:08.319Z,8.61
2023-04-20T09:15:36.882Z,8.64
2023-04-20T09:18:12.741Z,8.66
2023-04-20T09:20:41.484Z,8.69
2023-04-20T09:23:14.250Z,8.74
2023-04-20T09:25:44.158Z,8.77
2023-04-20T09:28:13.784Z,8.82
2023-04-20T09:30:43.532Z,8.88
2023-04-20T09:33:13.053Z,8.95
2023-04-20T09:35:42.614Z,9.04
2023-04-20T09:38:12.837Z,9.14
2023-04-20T09:40:41.576Z,9.24
2023-04-20T09:43:15.302Z,9.36
2023-04-20T09:45:44.333Z,9.46
2023-04-20T09:48:17.415Z,9.53
2023-04-20T09:50:49.953Z,9.62
2023-04-20T09:53:20.311Z,9.69
2023-04-20T09:55:49.855Z,9.74
2023-04-20T09:58:20.969Z,9.77
2023-04-20T10:00:50.269Z,9.79
2023-04-20T10:03:20.248Z,9.80
2023-04-20T10:05:50.126Z,9.77
2023-04-20T10:08:20.927Z,9.75
2023-04-20T10:10:50.111Z,9.75
2023-04-20T10:13:23.624Z,9.76
2023-04-20T10:15:52.392Z,9.78
2023-04-20T10:18:24.173Z,9.77
2023-04-20T10:21:04.174Z,9.76
2023-04-20T10:23:32.945Z,9.74
2023-04-20T10:26:03.345Z,9.70
2023-04-20T10:28:40.590Z,9.67
2023-04-20T10:31:13.472Z,9.61
2023-04-20T10:33:51.398Z,9.54
2023-04-20T10:36:38.594Z,9.45
2023-04-20T10:39:20.941Z,9.34
2023-04-20T10:41:59.042Z,9.26
2023-04-20T10:44:28.118Z,9.21
2023-04-20T10:46:56.928Z,9.20
2023-04-20T10:49:29.668Z,9.21
2023-04-20T10:51:58.809Z,9.26
2023-04-20T10:54:27.472Z,9.32
2023-04-20T10:56:56.107Z,9.38
2023-04-20T10:59:25.503Z,9.43
2023-04-20T11:01:55.943Z,9.47
2023-04-20T11:04:32.814Z,9.49
2023-04-20T11:07:05.995Z,9.49
2023-04-20T11:09:35.066Z,9.48
2023-04-20T11:12:05.457Z,9.46
2023-04-20T11:14:34.935Z,9.45
2023-04-20T11:17:03.984Z,9.46
2023-04-20T11:19:34.414Z,9.47
2023-04-20T11:22:03.624Z,9.49
2023-04-20T11:24:34.235Z,9.52
2023-04-20T11:27:03.378Z,9.56
2023-04-20T11:29:36.472Z,9.62
2023-04-20T11:32:09.331Z,9.69
2023-04-20T11:34:38.797Z,9.74
2023-04-20T11:37:07.987Z,9.78
2023-04-20T11:39:37.775Z,9.81
2023-04-20T11:42:06.651Z,9.82
2023-04-20T11:44:37.368Z,9.83
2023-04-20T11:47:06.420Z,9.83
2023-04-20T11:49:36.220Z,9.82
2023-04-20T11:52:05.565Z,9.83
2023-04-20T11:54:35.396Z,9.85
2023-04-20T11:57:05.040Z,9.86
2023-04-20T11:59:34.759Z,9.88
2023-04-20T12:02:04.878Z,9.91
2023-04-20T12:04:52.188Z,9.95
2023-04-20T12:07:22.231Z,10.00
2023-04-20T12:09:50.898Z,10.04
2023-04-20T12:12:19.588Z,10.11
2023-04-20T12:14:48.211Z,10.19
2023-04-20T12:17:17.154Z,10.29
2023-04-20T12:19:45.897Z,10.38
2023-04-20T12:22:14.550Z,10.47
2023-04-20T12:24:43.345Z,10.56
2023-04-20T12:27:11.997Z,10.62
2023-04-20T12:29:59.538Z,10.66
2023-04-20T12:32:28.477Z,10.70
2023-04-20T12:34:57.321Z,10.73
2023-04-20T12:37:25.983Z,10.75
2023-04-20T12:39:54.683Z,10.77
2023-04-20T12:42:23.369Z,10.77
2023-04-20T12:44:54.948Z,10.78
2023-04-20T12:47:24.160Z,10.78
2023-04-20T12:49:52.831Z,10.80
2023-04-20T12:52:39.920Z,10.82
2023-04-20T12:55:08.846Z,10.84
2023-04-20T12:57:37.536Z,10.85
2023-04-20T13:00:25.247Z,10.85
2023-04-20T13:02:54.524Z,10.84
2023-04-20T13:05:23.523Z,10.83
2023-04-20T13:07:52.433Z,10.80
2023-04-20T13:10:39.811Z,10.77
2023-04-20T13:13:30.024Z,10.75
2023-04-20T13:15:58.873Z,10.72
2023-04-20T13:18:27.683Z,10.71
2023-04-20T13:21:15.223Z,10.72
2023-04-20T13:23:43.784Z,10.73
2023-04-20T13:26:12.428Z,10.73
2023-04-20T13:28:41.648Z,10.75
2023-04-20T13:31:10.283Z,10.76
2023-04-20T13:33:59.069Z,10.77
2023-04-20T13:36:28.635Z,10.79
2023-04-20T13:39:16.424Z,10.82
2023-04-20T13:41:45.297Z,10.83
2023-04-20T13:44:31.502Z,10.82
2023-04-20T13:47:00.187Z,10.80
2023-04-20T13:49:28.973Z,10.78
2023-04-20T13:52:16.602Z,10.76
2023-04-20T13:54:45.346Z,10.76
2023-04-20T13:57:13.948Z,10.79
2023-04-20T13:59:42.859Z,10.82
2023-04-20T14:02:12.235Z,10.88
2023-04-20T14:04:59.634Z,10.93
2023-04-20T14:07:28.354Z,10.99
2023-04-20T14:10:00.122Z,11.04
2023-04-20T14:12:30.174Z,11.10
2023-04-20T14:15:17.783Z,11.17
2023-04-20T14:17:46.617Z,11.22
2023-04-20T14:20:15.292Z,11.26
2023-04-20T14:23:02.642Z,11.29
2023-04-20T14:25:33.070Z,11.32
2023-04-20T14:28:02.092Z,11.34
2023-04-20T14:30:31.072Z,11.34
2023-04-20T14:33:18.639Z,11.35
2023-04-20T14:35:47.702Z,11.35
2023-04-20T14:38:16.505Z,11.34
2023-04-20T14:40:45.160Z,11.34
2023-04-20T14:43:13.844Z,11.32
2023-04-20T14:45:44.958Z,11.32
2023-04-20T14:48:13.808Z,11.31
2023-04-20T14:50:59.749Z,11.29
2023-04-20T14:53:30.554Z,11.28
2023-04-20T14:56:00.429Z,11.27
2023-04-20T14:58:48.359Z,11.26
2023-04-20T15:01:17.670Z,11.27
2023-04-20T15:03:46.608Z,11.27
2023-04-20T15:06:15.564Z,11.27
2023-04-20T15:08:44.249Z,11.27
2023-04-20T15:11:12.813Z,11.28
2023-04-20T15:13:42.762Z,11.28
2023-04-20T15:16:28.524Z,11.28
2023-04-20T15:18:57.376Z,11.28
2023-04-20T15:27:17.609Z,11.26
2023-04-20T15:30:03.550Z,11.26
2023-04-20T15:32:51.570Z,11.27
2023-04-20T15:35:20.377Z,11.29
2023-04-20T15:38:07.975Z,11.32
2023-04-20T15:40:36.624Z,11.34
2023-04-20T15:48:57.407Z,11.38
2023-04-20T15:51:44.706Z,11.36
2023-04-20T15:54:32.691Z,11.33
2023-04-20T15:57:01.969Z,11.31
2023-04-20T15:59:49.449Z,11.28
2023-04-20T16:02:37.017Z,11.24
2023-04-20T16:05:09.786Z,11.21
2023-04-20T16:07:38.580Z,11.17
2023-04-20T16:10:08.271Z,11.14
2023-04-20T16:12:37.807Z,11.09
2023-04-20T16:15:06.964Z,11.05
2023-04-20T16:17:35.875Z,11.01
2023-04-20T16:20:23.910Z,10.97
2023-04-20T16:22:52.749Z,10.91
2023-04-20T16:25:24.394Z,10.86
2023-04-20T16:28:11.800Z,10.82
2023-04-20T16:30:40.395Z,10.78
2023-04-20T16:33:27.866Z,10.74
2023-04-20T16:35:56.549Z,10.69
2023-04-20T16:38:25.311Z,10.65
2023-04-20T16:40:54.183Z,10.61
2023-04-20T16:43:23.237Z,10.59
2023-04-20T16:45:51.904Z,10.55
2023-04-20T16:48:20.572Z,10.53
2023-04-20T16:51:08.038Z,10.51
2023-04-20T16:53:37.209Z,10.49
2023-04-20T16:56:06.069Z,10.46
2023-04-20T16:58:34.947Z,10.43
2023-04-20T17:01:04.092Z,10.40
2023-04-20T17:03:49.922Z,10.35
2023-04-20T17:06:37.392Z,10.32
2023-04-20T17:09:07.382Z,10.28
2023-04-20T17:11:36.339Z,10.25
2023-04-20T17:14:04.879Z,10.21
2023-04-20T17:16:34.144Z,10.18
2023-04-20T17:19:03.002Z,10.15
2023-04-20T17:21:32.092Z,10.13
2023-04-20T17:24:00.824Z,10.10
2023-04-20T17:26:48.636Z,10.08
2023-04-20T17:29:17.391Z,10.05
2023-04-20T17:31:47.226Z,10.02
2023-04-20T17:34:16.369Z,10.00
2023-04-20T17:37:03.587Z,9.97
2023-04-20T17:39:32.402Z,9.94
2023-04-20T17:42:01.832Z,9.93
2023-04-20T17:44:30.475Z,9.93
2023-04-20T17:47:17.547Z,9.93
2023-04-20T17:49:46.129Z,9.93
2023-04-20T17:52:19.695Z,9.94
2023-04-20T17:54:48.412Z,9.93
2023-04-20T17:57:17.221Z,9.94
2023-04-20T17:59:46.500Z,9.92
2023-04-20T18:02:34.370Z,9.91
2023-04-20T18:05:22.227Z,9.91
2023-04-20T18:07:50.999Z,9.89
2023-04-20T18:10:19.853Z,9.88
2023-04-20T18:12:48.561Z,9.86
2023-04-20T18:15:17.225Z,9.85
2023-04-20T18:17:46.243Z,9.85
2023-04-20T18:20:15.086Z,9.84
2023-04-20T18:22:43.929Z,9.83
2023-04-20T18:25:31.337Z,9.81
2023-04-20T18:28:00.405Z,9.80
2023-04-20T18:30:29.436Z,9.79
2023-04-20T18:33:16.948Z,9.78
2023-04-20T18:36:05.838Z,9.77
2023-04-20T18:38:35.643Z,9.77
2023-04-20T18:41:04.246Z,9.74
2023-04-20T18:43:53.541Z,9.70
2023-04-20T18:46:41.376Z,9.66
2023-04-20T18:49:10.610Z,9.63
2023-04-20T18:51:39.524Z,9.60
2023-04-20T19:00:00.208Z,9.50
2023-04-20T19:02:47.851Z,9.47
2023-04-20T19:05:17.731Z,9.45
2023-04-20T19:07:47.466Z,9.42
2023-04-20T19:10:18.347Z,9.38
2023-04-20T19:13:06.040Z,9.33
2023-04-20T19:15:35.725Z,9.27
2023-04-20T19:18:04.824Z,9.22
2023-04-20T19:20:53.034Z,9.16
2023-04-20T19:23:42.119Z,9.08
2023-04-20T19:26:10.866Z,9.01
2023-04-20T19:28:39.887Z,8.95
2023-04-20T19:31:33.759Z,8.89
2023-04-20T19:36:49.703Z,8.77
2023-04-20T19:42:04.969Z,8.69
2023-04-20T19:44:54.661Z,8.67
2023-04-20T19:47:23.963Z,8.65
2023-04-20T19:49:52.696Z,8.63
2023-04-20T19:55:07.858Z,8.59
2023-04-20T19:57:36.942Z,8.56
2023-04-20T20:00:23.160Z,8.53
2023-04-20T20:02:52.485Z,8.50
2023-04-20T20:05:21.299Z,8.47
2023-04-20T20:07:50.087Z,8.45
2023-04-20T20:10:18.670Z,8.44
2023-04-20T20:12:47.646Z,8.42
2023-04-20T20:15:16.521Z,8.41
2023-04-20T20:17:47.044Z,8.40
2023-04-20T20:20:19.399Z,8.39
2023-04-20T20:22:50.130Z,8.37
2023-04-20T20:25:22.460Z,8.35
2023-04-20T20:27:51.441Z,8.31
2023-04-20T20:30:20.105Z,8.28
2023-04-20T20:32:48.949Z,8.24
2023-04-20T20:35:17.876Z,8.21
2023-04-20T20:37:46.915Z,8.17
2023-04-20T20:40:16.021Z,8.13
2023-04-20T20:42:45.587Z,8.10
2023-04-20T20:45:14.480Z,8.07
2023-04-20T20:47:44.623Z,8.04
2023-04-20T20:50:13.992Z,8.00
2023-04-20T20:52:44.519Z,7.97
2023-04-20T20:55:13.353Z,7.95
2023-04-20T20:57:44.728Z,7.93
2023-04-20T21:00:14.417Z,7.92
2023-04-20T21:02:43.406Z,7.92
2023-04-20T21:05:12.298Z,7.92
2023-04-20T21:07:41.828Z,7.91
2023-04-20T21:10:13.666Z,7.91
2023-04-20T21:12:43.839Z,7.90
2023-04-20T21:15:13.642Z,7.89
2023-04-20T21:17:42.645Z,7.88
2023-04-20T21:20:11.979Z,7.86
2023-04-20T21:22:41.631Z,7.84
2023-04-20T21:25:10.479Z,7.81
2023-04-20T21:27:39.856Z,7.78
2023-04-20T21:30:08.742Z,7.75
2023-04-20T21:32:38.116Z,7.71
2023-04-20T21:35:07.114Z,7.67
2023-04-20T21:37:36.821Z,7.63
2023-04-20T21:40:06.170Z,7.60
2023-04-20T21:42:35.095Z,7.58
2023-04-20T21:45:04.138Z,7.56
2023-04-20T21:47:33.245Z,7.55
2023-04-20T21:50:02.163Z,7.53
2023-04-20T21:52:31.311Z,7.50
2023-04-20T21:55:00.157Z,7.46
2023-04-20T21:57:29.280Z,7.43
2023-04-20T21:59:58.102Z,7.40
2023-04-20T22:02:27.178Z,7.37
2023-04-20T22:04:56.498Z,7.35
2023-04-20T22:07:27.910Z,7.30
2023-04-20T22:09:56.806Z,7.26
2023-04-20T22:12:38.300Z,7.22
2023-04-20T22:15:11.931Z,7.19
2023-04-20T22:17:41.557Z,7.15
2023-04-20T22:20:10.924Z,7.12
2023-04-20T22:22:42.037Z,7.08
2023-04-20T22:25:12.388Z,7.04
2023-04-20T22:27:41.234Z,7.00
2023-04-20T22:30:11.911Z,6.96
2023-04-20T22:32:41.532Z,6.92
2023-04-20T22:35:10.552Z,6.88
2023-04-20T22:37:39.641Z,6.84
2023-04-20T22:40:10.245Z,6.79
2023-04-20T22:42:40.614Z,6.75
2023-04-20T22:45:12.610Z,6.71
2023-04-20T22:47:42.522Z,6.68
2023-04-20T22:50:12.792Z,6.65
2023-04-20T22:52:42.265Z,6.64
2023-04-20T22:55:12.554Z,6.64
2023-04-20T22:57:41.348Z,6.66
2023-04-20T23:00:14.271Z,6.66
2023-04-20T23:02:44.191Z,6.67
2023-04-20T23:05:12.954Z,6.66
2023-04-20T23:07:45.736Z,6.64
2023-04-20T23:10:17.110Z,6.61
2023-04-20T23:12:47.383Z,6.57
2023-04-20T23:15:16.470Z,6.51
2023-04-20T23:17:45.238Z,6.48
2023-04-20T23:20:14.314Z,6.43
2023-04-20T23:22:43.360Z,6.40
2023-04-20T23:25:12.172Z,6.37
2023-04-20T23:27:41.293Z,6.34
2023-04-20T23:30:10.475Z,6.31
2023-04-20T23:32:39.949Z,6.28
2023-04-20T23:35:09.830Z,6.25
2023-04-20T23:37:38.823Z,6.24
2023-04-20T23:40:08.987Z,6.23
2023-04-20T23:42:38.218Z,6.22
2023-04-20T23:45:07.330Z,6.23
2023-04-20T23:47:36.022Z,6.25
2023-04-20T23:50:05.245Z,6.26
2023-04-20T23:52:34.470Z,6.29
2023-04-20T23:55:03.254Z,6.31
2023-04-20T23:57:32.356Z,6.31
